Airfield :
LOGIN :

Register | Disclaimer

   EN    FR    IT 

 










Legend :    VFR   Marginal VFR   IFR   Intensive IFR   Very Intensive IFR
Visi :
Ceiling :
>= 8 km
>= 3000ft
5 to 8 km
1000 to 3000 ft
1500m to 5 km
500 to 1000 ft
800 to 1500m
200 to 500 ft
< 800m
< 200 ft
Symbols :   Thunderstorms  Fog  Heavy snow  Heavy precipitations  Wind > 20 kt
SIGMETs :     Misc.  Thunderstorms  Icing  Turbulence  Mountain Waves  Volcanic Ashes







- Airport Elevation : 821 ft
- IATA code : LYS
- Download approach charts


LFLL - Lyon St Exupéry / Satolas

CURRENT METAR :
  • 210000Z 14009KT CAVOK 19/12 Q1019 NOSIG

EXPIRED METARs :
  • 202330Z 14008KT CAVOK 19/12 Q1019 NOSIG
  • 202300Z 13009KT CAVOK 19/12 Q1019 NOSIG
  • 202230Z 14010KT CAVOK 19/12 Q1019 NOSIG
  • 202200Z 15009KT CAVOK 20/12 Q1019 NOSIG
  • 202130Z 14010KT 120V180 CAVOK 21/13 Q1019 NOSIG

TAF TAF LFLL
Valid from the 21 at 00:00 until the 22 at 06:00 UTC


202300Z 2100/2206 14008KT CAVOK
TEMPO 2110/2115 19015G25KT
No reported NOTAMs for that airfield.



MET'MAP, your aeronautical weather chart ! - Copyright ORBIFLY December 2007 - Disclaimer

ORBIFLY MET'MAP TEAM :

Programming & Development : Alexandra Zaïnal
Concept & Development : Baudouin d'Aumeries
Co-Development & Prog : Marc-Olivier Méhu
Technical & hardware support : Manuel Goepfert

Contact : metmap@orbifly.com




SOURCES & CREDITS :

   NOAA